Time;durP1;ratioP1;P1;durP2;ratioP2;P2;SDS_P1;SDS_P2;PMS_P1;PMS_P2;Temp;Humidity;BMP_temperature;BMP_pressure;BME280_temperature;BME280_humidity;BME280_pressure;Samples;Min_cycle;Max_cycle;Signal;HPM_P1;HPM_P2
2022/01/30 00:00:15;;;;;;;97.05;11.70;;;;;;;;;;5033406;28;20029;-77
2022/01/30 00:02:41;;;;;;;97.03;10.25;;;;;;;;;;5033546;28;20500;-77
2022/01/30 00:05:07;;;;;;;104.65;12.02;;;;;;;;;;5035192;28;20033;-78
2022/01/30 00:07:35;;;;;;;89.50;11.25;;;;;;;;;;5034356;28;20124;-77
2022/01/30 00:10:01;;;;;;;82.43;10.60;;;;;;;;;;5033445;28;20052;-78
2022/01/30 00:12:45;;;;;;;91.60;10.70;;;;;;;;;;5015397;28;20405;-77
2022/01/30 00:15:12;;;;;;;73.15;9.95;;;;;;;;;;5015304;28;20025;-78
2022/01/30 00:17:45;;;;;;;86.85;11.30;;;;;;;;;;5033806;28;20087;-78
2022/01/30 00:20:22;;;;;;;80.80;11.23;;;;;;;;;;5015790;28;20086;-76
2022/01/30 00:23:09;;;;;;;72.88;9.85;;;;;;;;;;5033562;28;20022;-76
2022/01/30 00:25:46;;;;;;;102.07;11.07;;;;;;;;;;5045666;23;20141;-73
2022/01/30 00:28:14;;;;;;;96.00;10.95;;;;;;;;;;5014194;28;20078;-73
2022/01/30 00:30:40;;;;;;;98.72;12.10;;;;;;;;;;5025341;28;20026;-74
2022/01/30 00:33:06;;;;;;;80.57;11.25;;;;;;;;;;5020118;28;20056;-73
2022/01/30 00:35:33;;;;;;;108.57;12.43;;;;;;;;;;4995514;28;20394;-74
2022/01/30 00:38:00;;;;;;;93.10;11.48;;;;;;;;;;5015157;28;20025;-72
2022/01/30 00:40:26;;;;;;;116.88;13.73;;;;;;;;;;4995354;28;20056;-72
2022/01/30 00:42:52;;;;;;;103.72;11.52;;;;;;;;;;4995329;28;20022;-72
2022/01/30 00:45:18;;;;;;;86.97;12.27;;;;;;;;;;5012489;28;20112;-71
2022/01/30 00:47:44;;;;;;;97.43;10.25;;;;;;;;;;5012657;28;20060;-73
2022/01/30 00:50:10;;;;;;;73.25;11.20;;;;;;;;;;4995320;28;20097;-73
2022/01/30 00:52:36;;;;;;;90.50;10.63;;;;;;;;;;5012744;28;20101;-72
2022/01/30 00:55:03;;;;;;;93.00;13.57;;;;;;;;;;4995103;28;20037;-72
2022/01/30 00:57:29;;;;;;;96.75;12.23;;;;;;;;;;5012623;28;20522;-72
2022/01/30 00:59:55;;;;;;;99.40;11.15;;;;;;;;;;5012597;28;20094;-72
2022/01/30 01:02:21;;;;;;;118.72;13.10;;;;;;;;;;5012720;28;20064;-71
2022/01/30 01:04:48;;;;;;;107.93;12.38;;;;;;;;;;5012594;28;20026;-73
2022/01/30 01:07:19;;;;;;;69.70;9.27;;;;;;;;;;5012478;28;20096;-72
2022/01/30 01:09:54;;;;;;;77.93;9.27;;;;;;;;;;5012677;28;20040;-73
2022/01/30 01:13:12;;;;;;;59.58;8.18;;;;;;;;;;5012662;28;20045;-74
2022/01/30 01:23:26;;;;;;;69.03;9.38;;;;;;;;;;5012725;28;20030;-73
2022/01/30 01:25:53;;;;;;;73.50;9.07;;;;;;;;;;5012243;28;20030;-72
2022/01/30 01:28:18;;;;;;;86.60;10.23;;;;;;;;;;5012362;28;20440;-74
2022/01/30 01:30:45;;;;;;;92.40;10.30;;;;;;;;;;5012483;28;20046;-72
2022/01/30 01:33:12;;;;;;;93.20;9.85;;;;;;;;;;4994894;28;20368;-74
2022/01/30 01:35:38;;;;;;;79.10;10.52;;;;;;;;;;5012055;28;20029;-72
2022/01/30 01:38:09;;;;;;;80.80;9.38;;;;;;;;;;5012363;28;20032;-72
2022/01/30 01:40:35;;;;;;;78.82;10.82;;;;;;;;;;5012218;28;20029;-73
2022/01/30 01:43:02;;;;;;;68.22;8.45;;;;;;;;;;4994482;28;20022;-72
2022/01/30 01:45:34;;;;;;;60.25;7.70;;;;;;;;;;5012204;28;20040;-73
2022/01/30 01:48:03;;;;;;;56.00;7.72;;;;;;;;;;5012261;28;20022;-72
2022/01/30 01:50:39;;;;;;;59.17;7.80;;;;;;;;;;5012407;28;20468;-72
2022/01/30 01:53:09;;;;;;;70.90;8.50;;;;;;;;;;4994543;28;20034;-73
2022/01/30 01:55:36;;;;;;;70.78;8.57;;;;;;;;;;5011895;28;20033;-73
2022/01/30 01:58:02;;;;;;;78.43;9.95;;;;;;;;;;5014392;28;20030;-72
2022/01/30 02:00:28;;;;;;;77.95;9.55;;;;;;;;;;5016071;28;20504;-71
2022/01/30 02:02:55;;;;;;;90.95;10.60;;;;;;;;;;5015750;28;20105;-74
2022/01/30 02:05:23;;;;;;;91.47;11.57;;;;;;;;;;5015377;28;20021;-73
2022/01/30 02:10:25;;;;;;;73.30;10.32;;;;;;;;;;5015466;28;20030;-72
2022/01/30 02:12:54;;;;;;;71.28;9.30;;;;;;;;;;4997933;28;20027;-73
2022/01/30 02:26:02;;;;;;;97.63;11.23;;;;;;;;;;5015293;28;20041;-73
2022/01/30 02:28:31;;;;;;;81.88;10.23;;;;;;;;;;5014545;28;20106;-73
2022/01/30 02:31:11;;;;;;;93.85;10.65;;;;;;;;;;4997962;28;20025;-72
2022/01/30 02:33:39;;;;;;;99.05;10.50;;;;;;;;;;5016659;28;20019;-73
2022/01/30 02:36:05;;;;;;;82.13;9.07;;;;;;;;;;5015259;28;20032;-72
2022/01/30 02:38:31;;;;;;;90.03;11.30;;;;;;;;;;5017037;28;20030;-73
2022/01/30 02:40:58;;;;;;;97.15;10.45;;;;;;;;;;5002553;28;20030;-73
2022/01/30 02:43:30;;;;;;;87.53;11.75;;;;;;;;;;5015182;28;20048;-73
2022/01/30 02:46:06;;;;;;;99.97;11.18;;;;;;;;;;5014729;28;20304;-74
2022/01/30 02:48:56;;;;;;;71.50;9.75;;;;;;;;;;5015346;28;20018;-74
2022/01/30 02:51:24;;;;;;;84.30;11.00;;;;;;;;;;5014703;28;20048;-75
2022/01/30 02:54:03;;;;;;;76.53;9.55;;;;;;;;;;5014841;28;20102;-73
2022/01/30 02:56:29;;;;;;;87.85;9.38;;;;;;;;;;4998234;28;20084;-77
2022/01/30 02:58:55;;;;;;;74.25;9.93;;;;;;;;;;5015115;28;20022;-77
2022/01/30 03:01:21;;;;;;;76.97;9.40;;;;;;;;;;5015519;28;20030;-78
2022/01/30 03:03:47;;;;;;;67.53;10.20;;;;;;;;;;4997862;28;20104;-77
2022/01/30 03:06:13;;;;;;;83.68;10.80;;;;;;;;;;5018627;28;20022;-77
2022/01/30 03:08:39;;;;;;;116.30;13.27;;;;;;;;;;5014593;28;20068;-78
2022/01/30 03:11:05;;;;;;;82.72;10.73;;;;;;;;;;5015989;28;20026;-77
2022/01/30 03:13:31;;;;;;;80.72;11.25;;;;;;;;;;4997200;28;20026;-78
2022/01/30 03:16:00;;;;;;;95.78;11.05;;;;;;;;;;5014748;28;20022;-76
2022/01/30 03:18:26;;;;;;;84.25;10.23;;;;;;;;;;4997736;28;20022;-76
2022/01/30 03:20:52;;;;;;;87.28;10.20;;;;;;;;;;5016291;28;20566;-77
2022/01/30 03:23:18;;;;;;;88.38;10.82;;;;;;;;;;5018108;28;20144;-78
2022/01/30 03:25:44;;;;;;;86.63;10.13;;;;;;;;;;5037542;28;20046;-77
2022/01/30 03:28:10;;;;;;;93.68;11.60;;;;;;;;;;5028654;28;20021;-77
2022/01/30 03:30:37;;;;;;;84.45;10.05;;;;;;;;;;4997619;28;20394;-77
2022/01/30 03:33:03;;;;;;;85.68;11.90;;;;;;;;;;5016548;28;20105;-78
2022/01/30 03:35:29;;;;;;;88.10;10.60;;;;;;;;;;5015944;28;20076;-72
2022/01/30 03:37:55;;;;;;;86.93;11.75;;;;;;;;;;5013786;28;20034;-72
2022/01/30 03:40:21;;;;;;;101.93;11.80;;;;;;;;;;5013948;28;20034;-73
2022/01/30 03:42:47;;;;;;;76.53;9.80;;;;;;;;;;5013833;28;20057;-72
2022/01/30 03:45:14;;;;;;;78.60;9.68;;;;;;;;;;5013522;28;20060;-74
2022/01/30 03:47:40;;;;;;;82.20;10.65;;;;;;;;;;5013826;28;20022;-74
2022/01/30 03:50:06;;;;;;;92.95;10.60;;;;;;;;;;5013427;28;20029;-74
2022/01/30 03:52:32;;;;;;;73.47;9.73;;;;;;;;;;5013554;28;20030;-73
2022/01/30 03:54:58;;;;;;;89.93;10.65;;;;;;;;;;5013703;28;20036;-74
2022/01/30 03:57:24;;;;;;;78.07;10.77;;;;;;;;;;5013769;28;20537;-73
2022/01/30 03:59:49;;;;;;;88.05;10.25;;;;;;;;;;5014625;28;20105;-73
2022/01/30 04:02:16;;;;;;;85.45;10.73;;;;;;;;;;5016237;28;20102;-75
2022/01/30 04:04:41;;;;;;;88.20;10.35;;;;;;;;;;5014872;28;20026;-73
2022/01/30 04:07:08;;;;;;;87.50;11.13;;;;;;;;;;5013048;28;20163;-72
2022/01/30 04:09:34;;;;;;;90.00;10.35;;;;;;;;;;5013504;28;20034;-74
2022/01/30 04:12:00;;;;;;;81.22;9.43;;;;;;;;;;5014319;28;20034;-73
2022/01/30 04:14:26;;;;;;;76.80;8.85;;;;;;;;;;5015464;28;20022;-73
2022/01/30 04:16:52;;;;;;;89.53;11.20;;;;;;;;;;5015260;28;20092;-73
2022/01/30 04:19:18;;;;;;;89.63;11.10;;;;;;;;;;5013634;28;20088;-74
2022/01/30 04:21:44;;;;;;;86.80;10.43;;;;;;;;;;5012480;28;20068;-74
2022/01/30 04:24:10;;;;;;;86.75;11.98;;;;;;;;;;5012639;28;20021;-73
2022/01/30 04:26:36;;;;;;;78.00;9.63;;;;;;;;;;5010414;28;20483;-72
2022/01/30 04:29:03;;;;;;;76.13;9.80;;;;;;;;;;5012434;28;20029;-73
2022/01/30 04:31:29;;;;;;;80.75;11.38;;;;;;;;;;5012606;28;20065;-74
2022/01/30 04:33:55;;;;;;;83.18;10.32;;;;;;;;;;5012815;28;20083;-73
2022/01/30 04:36:27;;;;;;;82.43;11.05;;;;;;;;;;4994824;28;20446;-74
2022/01/30 04:41:47;;;;;;;84.60;11.20;;;;;;;;;;5012667;28;20030;-72
2022/01/30 04:57:51;;;;;;;77.22;10.38;;;;;;;;;;5012289;28;20431;-72
2022/01/30 05:00:29;;;;;;;84.63;11.15;;;;;;;;;;5012625;28;20498;-74
2022/01/30 05:03:08;;;;;;;66.85;9.82;;;;;;;;;;4995012;28;20391;-73
2022/01/30 05:06:11;;;;;;;82.43;10.85;;;;;;;;;;4994215;28;20018;-72
2022/01/30 05:08:27;;;;;;;76.38;9.85;;;;;;;;;;5006813;28;20037;-72
2022/01/30 05:10:54;;;;;;;95.55;11.57;;;;;;;;;;5015421;28;20025;-72
2022/01/30 05:13:21;;;;;;;88.40;10.63;;;;;;;;;;5012981;28;20049;-73
2022/01/30 05:15:47;;;;;;;103.05;11.50;;;;;;;;;;5012610;28;20029;-73
2022/01/30 05:18:17;;;;;;;91.97;12.27;;;;;;;;;;5012230;28;20045;-73
2022/01/30 05:20:44;;;;;;;101.50;11.75;;;;;;;;;;5011948;28;20026;-73
2022/01/30 05:23:10;;;;;;;87.65;11.20;;;;;;;;;;5011904;28;20019;-73
2022/01/30 05:25:37;;;;;;;103.40;11.68;;;;;;;;;;4993879;28;20133;-72
2022/01/30 05:28:06;;;;;;;97.93;12.30;;;;;;;;;;5012103;28;20018;-73
2022/01/30 05:30:32;;;;;;;95.05;12.27;;;;;;;;;;4994247;28;20041;-74
2022/01/30 05:32:58;;;;;;;88.85;11.77;;;;;;;;;;5013886;28;20105;-74
2022/01/30 05:35:24;;;;;;;91.45;11.45;;;;;;;;;;5015774;28;20040;-73
2022/01/30 05:37:50;;;;;;;82.55;10.25;;;;;;;;;;5016077;28;20034;-74
2022/01/30 05:40:16;;;;;;;82.32;10.57;;;;;;;;;;4999675;28;20540;-74
2022/01/30 05:42:43;;;;;;;83.45;9.63;;;;;;;;;;5016365;28;20420;-73
2022/01/30 05:45:17;;;;;;;84.82;11.32;;;;;;;;;;5015234;28;20037;-77
2022/01/30 05:47:56;;;;;;;83.78;9.18;;;;;;;;;;4997989;28;20487;-73
2022/01/30 05:50:22;;;;;;;81.22;11.57;;;;;;;;;;5015560;28;20502;-73
2022/01/30 05:52:48;;;;;;;88.43;10.57;;;;;;;;;;5015519;28;20129;-73
2022/01/30 05:55:14;;;;;;;94.22;10.10;;;;;;;;;;5015141;28;20104;-72
2022/01/30 05:57:40;;;;;;;79.05;10.48;;;;;;;;;;5015499;28;20026;-72
2022/01/30 06:00:07;;;;;;;86.72;10.45;;;;;;;;;;5015883;28;20030;-72
2022/01/30 06:02:33;;;;;;;111.20;11.43;;;;;;;;;;5015891;28;20041;-72
2022/01/30 06:04:59;;;;;;;77.32;11.25;;;;;;;;;;5015372;28;20029;-74
2022/01/30 06:07:31;;;;;;;93.18;10.70;;;;;;;;;;5016021;28;20360;-73
2022/01/30 06:09:57;;;;;;;75.80;10.55;;;;;;;;;;5015921;28;20025;-73
2022/01/30 06:12:23;;;;;;;93.40;11.48;;;;;;;;;;5015729;28;20089;-72
2022/01/30 06:14:49;;;;;;;97.35;10.75;;;;;;;;;;5015068;28;20040;-72
2022/01/30 06:17:15;;;;;;;84.30;11.23;;;;;;;;;;5015205;28;20080;-73
2022/01/30 06:19:41;;;;;;;81.65;10.48;;;;;;;;;;5015996;28;20117;-74
2022/01/30 06:22:07;;;;;;;82.97;10.82;;;;;;;;;;5016545;28;20434;-74
2022/01/30 06:24:33;;;;;;;92.00;11.05;;;;;;;;;;5015851;28;20026;-74
2022/01/30 06:26:59;;;;;;;79.80;10.57;;;;;;;;;;5014254;28;20048;-74
2022/01/30 06:29:25;;;;;;;86.10;9.13;;;;;;;;;;5016203;28;20045;-73
2022/01/30 06:31:51;;;;;;;92.25;12.05;;;;;;;;;;5015519;28;20479;-73
2022/01/30 06:34:17;;;;;;;78.97;11.15;;;;;;;;;;4996833;28;20021;-73
2022/01/30 06:36:43;;;;;;;88.50;11.10;;;;;;;;;;5013684;28;20391;-74
2022/01/30 06:39:10;;;;;;;102.68;11.45;;;;;;;;;;4995697;28;20029;-73
2022/01/30 06:41:36;;;;;;;96.25;10.98;;;;;;;;;;5013511;28;20022;-72
2022/01/30 06:44:02;;;;;;;78.82;11.02;;;;;;;;;;5013147;28;20109;-72
2022/01/30 06:46:28;;;;;;;93.35;10.18;;;;;;;;;;4996433;28;20022;-75
2022/01/30 06:48:54;;;;;;;72.60;10.13;;;;;;;;;;5014316;28;20033;-76
2022/01/30 06:51:21;;;;;;;87.47;9.40;;;;;;;;;;5014330;28;20034;-76
2022/01/30 06:53:46;;;;;;;102.47;11.25;;;;;;;;;;5014777;28;20084;-75
2022/01/30 06:56:12;;;;;;;82.30;9.95;;;;;;;;;;4997384;28;20030;-73
2022/01/30 06:58:38;;;;;;;87.28;10.98;;;;;;;;;;5014258;28;20101;-74
2022/01/30 07:01:04;;;;;;;76.00;9.65;;;;;;;;;;4996632;28;20025;-73
2022/01/30 07:03:30;;;;;;;87.32;10.95;;;;;;;;;;5014071;28;20026;-73
2022/01/30 07:05:56;;;;;;;95.53;10.93;;;;;;;;;;4996696;28;20028;-75
2022/01/30 07:08:22;;;;;;;87.18;11.45;;;;;;;;;;5014430;28;20096;-75
2022/01/30 07:10:48;;;;;;;90.50;11.23;;;;;;;;;;5014521;28;20117;-75
2022/01/30 07:13:14;;;;;;;78.78;9.30;;;;;;;;;;5014252;28;20026;-76
2022/01/30 07:15:41;;;;;;;87.03;10.52;;;;;;;;;;5014036;28;20030;-74
2022/01/30 07:18:07;;;;;;;97.35;10.55;;;;;;;;;;4996581;28;20049;-74
2022/01/30 07:20:34;;;;;;;84.40;10.88;;;;;;;;;;5016151;28;20515;-77
2022/01/30 07:23:00;;;;;;;100.85;12.18;;;;;;;;;;5015497;28;20081;-78
2022/01/30 07:25:25;;;;;;;100.43;11.82;;;;;;;;;;5015189;28;20038;-76
2022/01/30 07:27:51;;;;;;;92.78;11.05;;;;;;;;;;5015883;28;20076;-77
2022/01/30 07:30:17;;;;;;;101.28;13.18;;;;;;;;;;5015159;28;20057;-76
2022/01/30 07:32:43;;;;;;;131.63;14.07;;;;;;;;;;5015901;28;20030;-77
2022/01/30 07:35:09;;;;;;;118.40;13.30;;;;;;;;;;5017468;28;20052;-78
2022/01/30 07:37:36;;;;;;;109.28;12.60;;;;;;;;;;5016029;28;20087;-77
2022/01/30 07:40:03;;;;;;;124.20;13.80;;;;;;;;;;5017095;28;20091;-77
2022/01/30 07:42:29;;;;;;;115.07;12.75;;;;;;;;;;5016146;28;20507;-76
2022/01/30 07:44:54;;;;;;;128.07;13.93;;;;;;;;;;5020322;28;20100;-74
2022/01/30 07:47:22;;;;;;;104.68;14.27;;;;;;;;;;5022731;28;20018;-75
2022/01/30 07:49:51;;;;;;;104.75;12.20;;;;;;;;;;5015084;28;20022;-79
2022/01/30 07:52:18;;;;;;;104.25;12.93;;;;;;;;;;5014978;28;20029;-76
2022/01/30 07:54:44;;;;;;;114.60;14.45;;;;;;;;;;5012794;28;20030;-76
2022/01/30 07:57:10;;;;;;;121.85;13.52;;;;;;;;;;5013659;28;20030;-76
2022/01/30 07:59:36;;;;;;;120.78;14.57;;;;;;;;;;5013830;28;20026;-74
2022/01/30 08:02:02;;;;;;;94.47;12.02;;;;;;;;;;5012804;28;20026;-74
2022/01/30 08:04:28;;;;;;;101.78;13.32;;;;;;;;;;5013909;28;20079;-75
2022/01/30 08:06:55;;;;;;;107.82;13.43;;;;;;;;;;5015837;28;20386;-75
2022/01/30 08:09:21;;;;;;;105.40;14.55;;;;;;;;;;5014335;28;20034;-76
2022/01/30 08:11:47;;;;;;;95.88;13.60;;;;;;;;;;5014815;28;20026;-76
2022/01/30 08:14:13;;;;;;;110.18;12.95;;;;;;;;;;4997872;28;20502;-76
2022/01/30 08:16:39;;;;;;;105.07;12.05;;;;;;;;;;5013756;28;20286;-76
2022/01/30 08:19:05;;;;;;;125.97;13.18;;;;;;;;;;5013566;28;20044;-76
2022/01/30 08:21:31;;;;;;;97.68;12.13;;;;;;;;;;5013069;28;20093;-76
2022/01/30 08:23:57;;;;;;;95.60;12.00;;;;;;;;;;5012832;28;20034;-74
2022/01/30 08:26:23;;;;;;;99.65;12.82;;;;;;;;;;5012465;28;20084;-77
2022/01/30 08:28:49;;;;;;;94.57;11.10;;;;;;;;;;5013366;28;20038;-76
2022/01/30 08:31:15;;;;;;;89.47;10.77;;;;;;;;;;5013141;28;20029;-76
2022/01/30 08:33:41;;;;;;;96.70;12.75;;;;;;;;;;5013035;28;20072;-76
2022/01/30 08:36:07;;;;;;;82.55;10.38;;;;;;;;;;5010787;28;20030;-76
2022/01/30 08:38:33;;;;;;;83.53;11.68;;;;;;;;;;5009636;28;20026;-76
2022/01/30 08:40:59;;;;;;;111.88;13.32;;;;;;;;;;4983213;28;20038;-74
2022/01/30 08:43:25;;;;;;;104.38;12.15;;;;;;;;;;4995978;28;20026;-76
2022/01/30 08:45:52;;;;;;;98.60;10.75;;;;;;;;;;4993236;28;20041;-78
2022/01/30 08:48:19;;;;;;;106.03;12.45;;;;;;;;;;4994226;28;20455;-75
2022/01/30 08:50:45;;;;;;;94.93;11.25;;;8.70;99.90;;;;;;5023972;28;20064;-76
2022/01/30 08:53:11;;;;;;;97.13;11.02;;;7.30;99.90;;;;;;5034185;28;20029;-75
2022/01/30 08:55:37;;;;;;;93.47;10.90;;;7.40;99.90;;;;;;5030752;28;20027;-74
2022/01/30 08:58:09;;;;;;;91.35;10.82;;;7.40;99.90;;;;;;5031359;28;20041;-75
2022/01/30 09:00:36;;;;;;;99.82;11.73;;;7.40;99.90;;;;;;5032399;28;20108;-75
2022/01/30 09:03:04;;;;;;;90.20;11.93;;;7.40;99.90;;;;;;5032154;28;20030;-75
2022/01/30 09:05:30;;;;;;;98.47;12.35;;;7.30;99.90;;;;;;5014194;28;20021;-76
2022/01/30 09:07:56;;;;;;;92.78;11.25;;;7.40;99.90;;;;;;5035186;28;20133;-76
2022/01/30 09:10:22;;;;;;;95.10;12.13;;;7.40;99.90;;;;;;5036348;28;20108;-77
2022/01/30 09:12:47;;;;;;;75.90;10.60;;;7.30;99.90;;;;;;5036358;28;20104;-74
2022/01/30 09:15:15;;;;;;;115.75;11.75;;;7.40;99.90;;;;;;5035094;28;20025;-76
2022/01/30 09:17:41;;;;;;;94.57;13.43;;;7.40;99.90;;;;;;5036477;28;20029;-76
2022/01/30 09:20:08;;;;;;;100.50;12.20;;;7.40;99.90;;;;;;5036059;28;20066;-76
2022/01/30 09:22:34;;;;;;;99.53;12.88;;;7.40;99.90;;;;;;5034817;28;20662;-76
2022/01/30 09:25:00;;;;;;;87.05;11.68;;;7.40;99.90;;;;;;5017069;28;20116;-76
2022/01/30 09:27:25;;;;;;;96.38;11.93;;;7.40;99.90;;;;;;5034827;28;20152;-75
2022/01/30 09:29:51;;;;;;;106.25;12.60;;;7.40;99.90;;;;;;5035105;28;20087;-78
2022/01/30 09:32:17;;;;;;;101.03;13.18;;;7.40;99.90;;;;;;5034798;28;20021;-77
2022/01/30 09:34:43;;;;;;;86.65;11.80;;;7.50;99.90;;;;;;5034904;28;20060;-77
2022/01/30 09:37:09;;;;;;;104.40;12.20;;;7.50;99.90;;;;;;5034572;28;20110;-75
2022/01/30 09:39:36;;;;;;;108.07;13.02;;;7.60;99.90;;;;;;5035286;28;20447;-76
2022/01/30 09:42:02;;;;;;;89.60;11.32;;;7.60;99.90;;;;;;5036092;28;20017;-77
2022/01/30 09:44:28;;;;;;;120.38;13.65;;;7.60;99.90;;;;;;5028962;28;20093;-77
2022/01/30 09:46:54;;;;;;;98.20;13.00;;;7.60;99.90;;;;;;5022320;28;20041;-76
2022/01/30 09:49:23;;;;;;;106.00;13.95;;;7.70;99.90;;;;;;5014587;28;20518;-76
2022/01/30 09:51:51;;;;;;;96.53;11.05;;;7.70;99.90;;;;;;5014683;28;20022;-77
2022/01/30 09:54:16;;;;;;;98.53;12.30;;;7.70;99.90;;;;;;5015389;28;20036;-75
2022/01/30 09:56:42;;;;;;;99.25;12.63;;;7.70;99.90;;;;;;5016708;28;20511;-75
2022/01/30 09:59:07;;;;;;;84.07;12.48;;;7.70;99.90;;;;;;5025024;28;20072;-77
2022/01/30 10:01:36;;;;;;;106.13;13.82;;;7.60;99.90;;;;;;5015816;28;20026;-76
2022/01/30 10:04:04;;;;;;;98.05;12.55;;;7.60;99.90;;;;;;5020850;28;20026;-77
2022/01/30 10:06:35;;;;;;;80.50;10.98;;;7.60;99.90;;;;;;5023476;28;20151;-77
2022/01/30 10:09:20;;;;;;;98.43;11.50;;;7.60;99.90;;;;;;5014733;28;20025;-75
2022/01/30 10:11:51;;;;;;;96.68;11.45;;;7.60;99.90;;;;;;5013903;28;20018;-76
2022/01/30 10:14:17;;;;;;;100.95;12.15;;;7.60;99.90;;;;;;5014167;28;20019;-76
2022/01/30 10:16:48;;;;;;;119.68;13.05;;;7.70;99.90;;;;;;5014650;28;20438;-77
2022/01/30 10:19:24;;;;;;;113.30;12.93;;;7.70;99.90;;;;;;5016314;28;20479;-75
2022/01/30 10:22:08;;;;;;;115.00;14.55;;;7.80;99.90;;;;;;5016115;28;20029;-74
2022/01/30 10:24:40;;;;;;;105.97;13.43;;;7.80;99.90;;;;;;5021910;28;20022;-77
2022/01/30 10:27:27;;;;;;;79.97;12.48;;;7.80;99.90;;;;;;5019104;28;20030;-75
2022/01/30 10:30:02;;;;;;;101.20;13.55;;;7.90;99.90;;;;;;5015328;28;20029;-77
2022/01/30 10:32:28;;;;;;;94.35;12.50;;;7.90;99.90;;;;;;5015397;28;20072;-75
2022/01/30 10:35:12;;;;;;;99.22;11.85;;;8.00;99.90;;;;;;4998939;28;20026;-76
2022/01/30 10:37:39;;;;;;;85.75;11.70;;;8.10;99.90;;;;;;5018059;28;20030;-74
2022/01/30 10:40:14;;;;;;;99.70;13.35;;;8.20;99.90;;;;;;5014433;28;20026;-76
2022/01/30 10:42:45;;;;;;;82.78;11.18;;;8.10;99.90;;;;;;4997415;28;20026;-75
2022/01/30 10:45:26;;;;;;;100.55;11.77;;;8.20;99.90;;;;;;5013781;28;20061;-75
2022/01/30 10:48:17;;;;;;;80.35;10.15;;;8.10;99.90;;;;;;5014348;28;20018;-75
2022/01/30 10:50:47;;;;;;;104.32;12.57;;;8.20;99.90;;;;;;5014234;28;20014;-76
2022/01/30 10:53:38;;;;;;;94.85;12.90;;;8.30;99.90;;;;;;5013939;28;20483;-76
2022/01/30 10:56:04;;;;;;;106.60;12.52;;;8.40;99.90;;;;;;5014411;28;20065;-76
2022/01/30 10:58:29;;;;;;;107.35;13.32;;;8.30;99.90;;;;;;4996946;28;20062;-74
2022/01/30 11:00:56;;;;;;;101.90;12.25;;;8.30;99.90;;;;;;5015088;28;20082;-75
2022/01/30 11:03:44;;;;;;;94.90;13.30;;;8.20;99.90;;;;;;5015524;28;20018;-75
2022/01/30 11:06:13;;;;;;;91.28;11.18;;;8.30;99.90;;;;;;5016369;28;20014;-75
2022/01/30 11:08:42;;;;;;;68.53;10.25;;;8.30;99.90;;;;;;5015837;28;20383;-78
2022/01/30 11:11:36;;;;;;;100.90;12.38;;;8.30;99.90;;;;;;5013844;28;20046;-77
2022/01/30 11:19:18;;;;;;;77.65;11.18;;;8.70;99.90;;;;;;5015019;28;20530;-77
2022/01/30 11:21:48;;;;;;;81.82;11.68;;;8.70;99.90;;;;;;4996810;28;20018;-76
2022/01/30 11:24:15;;;;;;;91.38;10.50;;;8.80;99.90;;;;;;5014552;28;20491;-77
2022/01/30 11:26:43;;;;;;;72.55;11.50;;;8.90;99.90;;;;;;5013222;28;20060;-76
2022/01/30 11:29:13;;;;;;;92.18;11.88;;;8.90;99.90;;;;;;5013086;28;20068;-74
2022/01/30 11:31:39;;;;;;;80.35;12.18;;;9.00;99.90;;;;;;4995342;28;20026;-75
2022/01/30 11:34:06;;;;;;;92.70;11.68;;;9.00;99.90;;;;;;5013253;28;20384;-76
2022/01/30 11:36:34;;;;;;;88.22;12.57;;;8.90;99.90;;;;;;5013592;28;20022;-75
2022/01/30 11:39:00;;;;;;;88.72;12.48;;;8.90;99.90;;;;;;5013929;28;20030;-75
2022/01/30 11:41:26;;;;;;;73.47;10.38;;;8.90;99.90;;;;;;5014963;28;20097;-75
2022/01/30 11:44:17;;;;;;;75.05;10.45;;;9.10;99.90;;;;;;5013898;28;20053;-75
2022/01/30 11:47:03;;;;;;;91.03;12.52;;;9.20;99.90;;;;;;5012208;28;20025;-76
2022/01/30 11:49:46;;;;;;;71.65;10.63;;;9.40;99.90;;;;;;4998409;28;20131;-74
2022/01/30 11:52:14;;;;;;;83.15;10.52;;;9.90;99.90;;;;;;5013270;28;20033;-74
2022/01/30 11:54:47;;;;;;;75.20;10.00;;;10.30;99.90;;;;;;4996486;28;20034;-75
2022/01/30 11:57:22;;;;;;;76.68;10.23;;;;;;;;;;5013624;28;20411;-76
2022/01/30 11:59:49;;;;;;;58.97;9.50;;;;;;;;;;4998805;28;20049;-76
2022/01/30 12:02:28;;;;;;;62.30;8.57;;;;;;;;;;5013842;28;20411;-77
2022/01/30 12:05:12;;;;;;;53.92;9.30;;;;;;;;;;5013323;28;20063;-76
2022/01/30 12:07:44;;;;;;;78.63;11.30;;;;;;;;;;5012562;28;20058;-77
2022/01/30 12:10:16;;;;;;;75.75;10.57;;;;;;;;;;5015063;28;20029;-75
2022/01/30 12:12:46;;;;;;;67.05;10.32;;;;;;;;;;5026897;28;20427;-75
2022/01/30 12:15:32;;;;;;;72.88;10.90;;;;;;;;;;5015717;28;20076;-76
2022/01/30 12:17:59;;;;;;;72.05;10.88;;;;;;;;;;5015342;28;20040;-75
2022/01/30 12:20:25;;;;;;;69.00;9.93;;;;;;;;;;5015677;28;20491;-76
2022/01/30 12:22:52;;;;;;;76.75;10.73;;;;;;;;;;5015322;28;20467;-75
2022/01/30 12:25:23;;;;;;;77.68;9.73;;;;;;;;;;4995923;28;20034;-76
2022/01/30 12:27:50;;;;;;;78.25;10.85;;;;;;;;;;5012521;28;20541;-77
2022/01/30 12:30:32;;;;;;;86.38;11.48;;;;;;;;;;5013005;28;20057;-76
2022/01/30 12:32:58;;;;;;;84.65;11.48;;;;;;;;;;5012067;28;20038;-76
2022/01/30 12:35:24;;;;;;;78.47;10.63;;;;;;;;;;5012206;28;20542;-75
2022/01/30 12:37:50;;;;;;;70.55;10.10;;;;;;;;;;5012924;28;20030;-75
2022/01/30 12:40:18;;;;;;;76.40;10.35;;;;;;;;;;4994174;28;20099;-77
2022/01/30 12:42:44;;;;;;;74.20;10.68;;;;;;;;;;4994077;28;20022;-75
2022/01/30 12:45:11;;;;;;;87.55;10.30;;;;;;;;;;5015708;28;20033;-73
2022/01/30 12:47:52;;;;;;;59.40;8.70;;;;;;;;;;4994769;28;20026;-74
2022/01/30 12:50:19;;;;;;;59.38;9.50;;;;;;;;;;5012702;28;20029;-75
2022/01/30 12:52:51;;;;;;;61.15;9.13;;;;;;;;;;5012515;28;20028;-76
2022/01/30 12:55:18;;;;;;;63.03;9.98;;;;;;;;;;5011890;28;20048;-75
2022/01/30 12:57:44;;;;;;;56.97;8.10;;;;;;;;;;5012137;28;20030;-75
2022/01/30 13:00:12;;;;;;;72.43;10.13;;;;;;;;;;5011757;28;20122;-75
2022/01/30 13:02:38;;;;;;;75.30;9.23;;;;;;;;;;5012095;28;20144;-75
2022/01/30 13:05:04;;;;;;;64.72;9.15;;;;;;;;;;5012452;28;20046;-74
2022/01/30 13:07:30;;;;;;;60.20;8.73;;;;;;;;;;5012160;28;20046;-74
2022/01/30 13:10:13;;;;;;;75.90;9.73;;;8.60;99.90;;;;;;5010760;28;20026;-74
2022/01/30 13:12:42;;;;;;;57.38;8.52;;;8.50;99.90;;;;;;4994536;28;20635;-75
2022/01/30 13:15:10;;;;;;;67.15;8.80;;;8.70;99.90;;;;;;5013083;28;20030;-74
2022/01/30 13:17:35;;;;;;;59.72;7.60;;;8.70;99.90;;;;;;5013121;28;20037;-75
2022/01/30 13:20:06;;;;;;;54.60;8.32;;;8.70;99.90;;;;;;4995607;28;20501;-75
2022/01/30 13:22:38;;;;;;;68.70;8.35;;;8.70;99.90;;;;;;5013416;28;20034;-75
2022/01/30 13:25:09;;;;;;;58.22;7.95;;;8.60;99.90;;;;;;4995352;28;20064;-74
2022/01/30 13:27:38;;;;;;;61.60;8.30;;;8.60;99.90;;;;;;5013042;28;20533;-76
2022/01/30 13:30:06;;;;;;;51.97;7.65;;;8.50;99.90;;;;;;5018705;28;20048;-74
2022/01/30 13:32:31;;;;;;;55.45;9.00;;;8.50;99.90;;;;;;5022465;28;20188;-75
2022/01/30 13:34:58;;;;;;;43.03;7.25;;;8.40;99.90;;;;;;5012749;28;20034;-73
2022/01/30 13:37:24;;;;;;;56.00;7.47;;;8.30;99.90;;;;;;5011652;28;20061;-74
2022/01/30 13:40:11;;;;;;;57.47;7.95;;;8.30;99.90;;;;;;5011767;28;20481;-74
2022/01/30 13:42:49;;;;;;;48.70;7.90;;;8.20;99.90;;;;;;5011829;28;20517;-73
2022/01/30 13:48:14;;;;;;;59.03;8.13;;;8.20;99.90;;;;;;5012408;28;20053;-74
2022/01/30 13:50:44;;;;;;;55.17;6.97;;;8.10;99.90;;;;;;5012230;28;20390;-74
2022/01/30 13:53:11;;;;;;;71.20;8.23;;;8.20;99.90;;;;;;4996118;28;20050;-73
2022/01/30 13:56:07;;;;;;;55.78;8.27;;;8.30;99.90;;;;;;5014957;28;20022;-74
2022/01/30 13:58:43;;;;;;;62.33;7.88;;;8.30;99.90;;;;;;4997754;28;20116;-74
2022/01/30 14:01:17;;;;;;;47.95;7.45;;;8.30;99.90;;;;;;5015599;28;20040;-76
2022/01/30 14:03:45;;;;;;;51.70;7.55;;;8.40;99.90;;;;;;5015463;28;20075;-73
2022/01/30 14:06:16;;;;;;;54.45;6.95;;;8.50;99.90;;;;;;5014830;28;20083;-74
2022/01/30 14:08:52;;;;;;;56.38;6.78;;;8.40;99.90;;;;;;5015556;28;20031;-74
2022/01/30 14:11:28;;;;;;;54.22;7.07;;;8.30;99.90;;;;;;5020532;28;20022;-73
2022/01/30 14:13:59;;;;;;;65.97;7.25;;;8.30;99.90;;;;;;5022245;28;20017;-74
2022/01/30 14:16:36;;;;;;;47.45;6.15;;;8.10;99.90;;;;;;5016646;28;20052;-75
2022/01/30 14:19:02;;;;;;;58.50;7.25;;;8.10;99.90;;;;;;5015416;28;20022;-74
2022/01/30 14:21:32;;;;;;;41.33;7.13;;;8.00;99.90;;;;;;5015038;28;20028;-73
2022/01/30 14:23:58;;;;;;;50.40;7.15;;;8.00;99.90;;;;;;5015054;28;20117;-74
2022/01/30 14:26:27;;;;;;;69.85;7.45;;;7.90;99.90;;;;;;5014663;28;20443;-74
2022/01/30 14:29:12;;;;;;;54.90;7.70;;;7.80;99.90;;;;;;4997425;28;20131;-74
2022/01/30 14:31:55;;;;;;;56.08;7.03;;;7.70;99.90;;;;;;5014921;28;20022;-75
2022/01/30 14:34:22;;;;;;;53.92;6.20;;;7.60;99.90;;;;;;5014987;28;20025;-73
2022/01/30 14:36:49;;;;;;;48.95;6.95;;;7.60;99.90;;;;;;5015386;28;20026;-75
2022/01/30 14:39:14;;;;;;;49.80;6.82;;;7.60;99.90;;;;;;5018625;28;20120;-74